Time;durP1;ratioP1;P1;durP2;ratioP2;P2;SDS_P1;SDS_P2;PMS_P1;PMS_P2;Temp;Humidity;BMP_temperature;BMP_pressure;BME280_temperature;BME280_humidity;BME280_pressure;Samples;Min_cycle;Max_cycle;Signal;HPM_P1;HPM_P2
2023/03/03 00:00:07;;;;;;;99.90;44.23;;;2.00;86.00;;;;;;5031840;28;20458;-72
2023/03/03 00:02:33;;;;;;;110.73;47.03;;;1.80;87.10;;;;;;5031138;28;20406;-74
2023/03/03 00:04:58;;;;;;;99.63;44.50;;;1.80;87.40;;;;;;5031843;28;20410;-74
2023/03/03 00:07:24;;;;;;;100.07;40.33;;;1.80;90.10;;;;;;5031647;28;20398;-73
2023/03/03 00:09:51;;;;;;;97.40;42.17;;;1.90;87.70;;;;;;5040403;28;20422;-73
2023/03/03 00:12:27;;;;;;;99.95;43.45;;;1.90;87.10;;;;;;5042515;28;20864;-72
2023/03/03 00:14:53;;;;;;;97.45;43.70;;;1.90;86.90;;;;;;5031779;28;20383;-71
2023/03/03 00:17:28;;;;;;;97.70;41.17;;;2.00;86.60;;;;;;5031358;28;20399;-73
2023/03/03 00:19:54;;;;;;;98.35;41.50;;;2.00;87.20;;;;;;5031598;28;20397;-73
2023/03/03 00:22:32;;;;;;;99.60;43.30;;;2.10;88.00;;;;;;5031011;28;20900;-72
2023/03/03 00:25:19;;;;;;;97.68;41.92;;;2.20;84.60;;;;;;5031224;28;20569;-72
2023/03/03 00:27:45;;;;;;;103.95;44.05;;;2.20;83.40;;;;;;5031525;28;20387;-72
2023/03/03 00:30:26;;;;;;;95.75;39.13;;;2.30;83.00;;;;;;5031190;28;20933;-73
2023/03/03 00:32:52;;;;;;;93.05;39.08;;;2.40;81.00;;;;;;5030839;28;20398;-73
2023/03/03 00:35:23;;;;;;;95.07;42.30;;;2.40;80.60;;;;;;5031216;28;20383;-71
2023/03/03 00:37:53;;;;;;;97.25;41.60;;;2.40;80.60;;;;;;5031018;28;20437;-73
2023/03/03 00:40:26;;;;;;;99.60;41.03;;;2.50;80.60;;;;;;5032047;28;20403;-73
2023/03/03 00:42:54;;;;;;;100.07;40.22;;;2.50;79.20;;;;;;5033414;28;20387;-72
2023/03/03 00:45:29;;;;;;;98.63;40.95;;;2.60;78.50;;;;;;5033386;28;20944;-72
2023/03/03 00:47:55;;;;;;;104.55;44.92;;;2.60;78.40;;;;;;5032791;28;20426;-72
2023/03/03 00:50:32;;;;;;;105.63;43.35;;;2.60;79.40;;;;;;5033132;28;20596;-71
2023/03/03 00:53:03;;;;;;;113.57;43.17;;;2.60;79.00;;;;;;5039036;28;20387;-73
2023/03/03 00:55:29;;;;;;;96.23;39.50;;;2.60;78.30;;;;;;5039271;28;20459;-73
2023/03/03 00:57:55;;;;;;;100.15;42.22;;;2.60;76.90;;;;;;5038135;28;20422;-73
2023/03/03 01:00:20;;;;;;;104.10;42.15;;;2.60;77.70;;;;;;5016716;28;20395;-72
2023/03/03 01:02:47;;;;;;;106.07;43.05;;;2.50;78.20;;;;;;5031454;28;20383;-72
2023/03/03 01:05:15;;;;;;;107.70;42.50;;;2.50;78.90;;;;;;5031696;28;20476;-73
2023/03/03 01:07:40;;;;;;;92.50;36.97;;;2.50;79.40;;;;;;5032238;28;20451;-71
2023/03/03 01:10:06;;;;;;;100.47;40.10;;;2.40;79.80;;;;;;5015011;28;20395;-73
2023/03/03 01:12:32;;;;;;;95.63;38.63;;;2.40;80.30;;;;;;5030792;28;20480;-72
2023/03/03 01:14:57;;;;;;;95.45;41.63;;;2.40;80.10;;;;;;5030462;28;20462;-71
2023/03/03 01:17:23;;;;;;;99.35;41.97;;;2.40;80.60;;;;;;5030406;28;20511;-72
2023/03/03 01:19:48;;;;;;;103.77;41.13;;;2.50;80.90;;;;;;5029241;28;20391;-71
2023/03/03 01:22:14;;;;;;;103.47;41.87;;;2.50;79.70;;;;;;5033021;28;20402;-73
2023/03/03 01:24:40;;;;;;;104.85;41.97;;;2.50;78.80;;;;;;5034902;28;20379;-72
2023/03/03 01:27:05;;;;;;;102.68;41.30;;;2.50;80.00;;;;;;5034833;28;20403;-73
2023/03/03 01:29:31;;;;;;;94.60;39.20;;;2.50;79.50;;;;;;5034441;28;20399;-71
2023/03/03 01:31:57;;;;;;;97.97;41.87;;;2.60;77.00;;;;;;5034321;28;20387;-72
2023/03/03 01:34:23;;;;;;;98.47;43.60;;;2.60;79.20;;;;;;5034505;28;20414;-73
2023/03/03 01:36:48;;;;;;;102.22;42.53;;;2.70;77.00;;;;;;5035420;28;20764;-72
2023/03/03 01:39:14;;;;;;;105.37;42.17;;;2.70;75.60;;;;;;5034437;28;20398;-72
2023/03/03 01:41:40;;;;;;;116.47;45.22;;;2.70;74.40;;;;;;5033896;28;20739;-73
2023/03/03 01:44:09;;;;;;;111.93;45.65;;;2.70;75.00;;;;;;5034182;28;20402;-71
2023/03/03 01:46:56;;;;;;;117.35;44.95;;;2.70;78.70;;;;;;5034070;28;20470;-73
2023/03/03 01:49:23;;;;;;;113.30;44.35;;;2.80;77.10;;;;;;5016679;28;20930;-73
2023/03/03 01:51:56;;;;;;;110.38;42.70;;;2.80;77.20;;;;;;5034067;28;20391;-71
2023/03/03 01:54:40;;;;;;;107.57;43.33;;;2.80;74.60;;;;;;5034305;28;20383;-72
2023/03/03 01:57:12;;;;;;;125.38;46.33;;;2.70;73.40;;;;;;5039975;28;20417;-72
2023/03/03 01:59:44;;;;;;;123.93;48.67;;;2.70;75.90;;;;;;5039888;28;20383;-71
2023/03/03 02:02:10;;;;;;;121.43;47.30;;;2.70;75.60;;;;;;5019508;28;20383;-73
2023/03/03 02:04:35;;;;;;;123.05;50.75;;;2.80;74.90;;;;;;5034015;28;20862;-73
2023/03/03 02:07:07;;;;;;;121.77;48.10;;;2.80;76.50;;;;;;5033798;28;20386;-72
2023/03/03 02:09:55;;;;;;;118.63;50.90;;;2.80;75.20;;;;;;5033784;28;20395;-72
2023/03/03 02:12:27;;;;;;;117.05;48.33;;;2.80;77.40;;;;;;5033647;28;20441;-72
2023/03/03 02:14:52;;;;;;;118.20;49.33;;;2.90;75.10;;;;;;5033764;28;20395;-72
2023/03/03 02:17:18;;;;;;;118.13;49.07;;;2.90;74.40;;;;;;5033798;28;20450;-72
2023/03/03 02:20:11;;;;;;;122.53;49.40;;;3.00;72.70;;;;;;5033608;28;20391;-72
2023/03/03 02:23:05;;;;;;;122.38;50.38;;;3.00;71.40;;;;;;5033597;28;20418;-72
2023/03/03 02:25:39;;;;;;;119.60;50.67;;;3.00;71.90;;;;;;5033497;28;20494;-73
2023/03/03 02:28:05;;;;;;;127.85;54.08;;;3.00;74.20;;;;;;5035966;28;20398;-73
2023/03/03 02:30:37;;;;;;;129.88;53.97;;;2.80;74.30;;;;;;5035982;28;20752;-71
2023/03/03 02:33:02;;;;;;;127.20;52.90;;;2.80;75.40;;;;;;5032629;28;20840;-71
2023/03/03 02:35:34;;;;;;;129.98;54.55;;;2.90;77.80;;;;;;5032722;28;20433;-71
2023/03/03 02:38:20;;;;;;;130.03;53.17;;;2.90;75.60;;;;;;5032911;28;20450;-72
2023/03/03 02:40:55;;;;;;;127.82;52.92;;;3.00;73.90;;;;;;5032726;28;20456;-73
2023/03/03 02:43:23;;;;;;;130.18;51.05;;;3.00;74.00;;;;;;5033020;28;20391;-73
2023/03/03 02:45:49;;;;;;;125.05;51.22;;;3.20;73.90;;;;;;5034345;28;20407;-73
2023/03/03 02:48:14;;;;;;;123.82;50.22;;;3.10;70.80;;;;;;5034607;28;20382;-72
2023/03/03 02:50:40;;;;;;;119.97;49.17;;;3.00;74.40;;;;;;5034164;28;20885;-73
2023/03/03 02:53:05;;;;;;;128.17;52.10;;;2.90;76.00;;;;;;5033289;28;20763;-72
2023/03/03 02:55:31;;;;;;;120.07;50.40;;;2.90;76.90;;;;;;5033711;28;20879;-73
2023/03/03 02:57:56;;;;;;;122.30;49.87;;;2.90;77.70;;;;;;5034351;28;20410;-73
2023/03/03 03:00:22;;;;;;;117.97;49.07;;;3.00;76.10;;;;;;5034688;28;20421;-72
2023/03/03 03:02:47;;;;;;;120.00;49.65;;;3.20;71.40;;;;;;5015473;28;20892;-72
2023/03/03 03:05:13;;;;;;;119.20;49.33;;;3.20;73.00;;;;;;5032695;28;20390;-72
2023/03/03 03:07:38;;;;;;;127.85;49.05;;;3.20;70.60;;;;;;5032165;28;20466;-72
2023/03/03 03:10:04;;;;;;;128.73;51.03;;;3.20;69.50;;;;;;5032337;28;20383;-72
2023/03/03 03:12:30;;;;;;;133.50;52.47;;;3.10;73.40;;;;;;5032168;28;20383;-72
2023/03/03 03:14:55;;;;;;;126.88;49.67;;;3.20;70.40;;;;;;5032354;28;20390;-72
2023/03/03 03:17:21;;;;;;;143.10;55.67;;;3.30;70.10;;;;;;5032133;28;20406;-72
2023/03/03 03:19:47;;;;;;;140.10;52.67;;;3.20;69.10;;;;;;5032082;28;20799;-71
2023/03/03 03:22:12;;;;;;;141.73;51.23;;;3.10;70.40;;;;;;5031976;28;20466;-73
2023/03/03 03:24:38;;;;;;;141.07;50.93;;;3.10;70.90;;;;;;5032130;28;20373;-73
2023/03/03 03:27:03;;;;;;;139.50;52.30;;;3.00;70.60;;;;;;5018307;28;20391;-72
2023/03/03 03:29:29;;;;;;;135.53;48.10;;;2.90;72.20;;;;;;5048560;28;20395;-72
2023/03/03 03:31:54;;;;;;;139.00;50.70;;;2.80;73.20;;;;;;5034645;28;20426;-72
2023/03/03 03:34:20;;;;;;;145.70;50.95;;;2.80;73.80;;;;;;5032113;28;20383;-72
2023/03/03 03:36:45;;;;;;;128.93;46.10;;;2.70;74.70;;;;;;5031621;28;20880;-72
2023/03/03 03:39:11;;;;;;;142.93;53.13;;;2.70;75.10;;;;;;5031534;28;20513;-72
2023/03/03 03:41:37;;;;;;;144.18;52.78;;;2.60;77.20;;;;;;5013287;28;20390;-72
2023/03/03 03:44:02;;;;;;;135.77;50.40;;;2.60;79.80;;;;;;5030809;28;20449;-73
2023/03/03 03:46:28;;;;;;;148.10;54.60;;;2.80;79.90;;;;;;5031443;28;20738;-73
2023/03/03 03:48:54;;;;;;;143.83;54.37;;;2.60;78.10;;;;;;5031434;28;20891;-72
2023/03/03 03:51:19;;;;;;;141.63;52.87;;;2.80;79.40;;;;;;5031499;28;20394;-71
2023/03/03 03:53:45;;;;;;;136.03;49.87;;;2.90;75.40;;;;;;5031379;28;20417;-72
2023/03/03 03:56:10;;;;;;;129.75;48.10;;;2.90;74.00;;;;;;5031314;28;20398;-72
2023/03/03 03:58:36;;;;;;;129.90;48.42;;;2.90;74.60;;;;;;5031353;28;20418;-71
2023/03/03 04:01:06;;;;;;;135.23;51.20;;;2.90;75.00;;;;;;5031581;28;20382;-73
2023/03/03 04:03:32;;;;;;;144.95;53.45;;;2.80;76.10;;;;;;5031120;28;20394;-73
2023/03/03 04:05:58;;;;;;;132.57;50.78;;;2.80;80.40;;;;;;5013209;28;20449;-73
2023/03/03 04:08:23;;;;;;;133.03;51.47;;;2.70;79.80;;;;;;5031056;28;20383;-73
2023/03/03 04:10:49;;;;;;;126.13;48.33;;;2.90;80.70;;;;;;5030945;28;20422;-73
2023/03/03 04:13:15;;;;;;;125.57;47.63;;;3.00;77.30;;;;;;5031136;28;20383;-73
2023/03/03 04:15:41;;;;;;;122.33;43.47;;;3.00;72.90;;;;;;5030824;28;20748;-72
2023/03/03 04:18:06;;;;;;;111.28;39.38;;;2.90;70.60;;;;;;5030855;28;20414;-73
2023/03/03 04:20:32;;;;;;;122.37;43.23;;;2.70;72.50;;;;;;5030994;28;20868;-73
2023/03/03 04:22:57;;;;;;;142.10;49.80;;;2.60;76.20;;;;;;5031230;28;20745;-72
2023/03/03 04:25:23;;;;;;;135.47;47.77;;;2.60;78.10;;;;;;5030722;28;20387;-72
2023/03/03 04:27:49;;;;;;;123.05;47.83;;;2.70;78.40;;;;;;5030744;28;20387;-73
2023/03/03 04:30:15;;;;;;;124.38;40.60;;;2.70;78.10;;;;;;5012999;28;20391;-73
2023/03/03 04:32:41;;;;;;;123.38;40.67;;;2.70;76.70;;;;;;5030491;28;20387;-73
2023/03/03 04:35:07;;;;;;;118.35;40.47;;;2.50;77.90;;;;;;5030974;28;20403;-71
2023/03/03 04:37:33;;;;;;;134.82;48.33;;;2.40;78.30;;;;;;5012909;28;20406;-72
2023/03/03 04:39:59;;;;;;;141.20;49.47;;;2.40;81.10;;;;;;5030559;28;20379;-72
2023/03/03 04:42:26;;;;;;;131.40;48.37;;;2.40;81.00;;;;;;5030537;28;20402;-72
2023/03/03 04:44:52;;;;;;;119.75;39.00;;;2.50;80.90;;;;;;5030482;28;20386;-73
2023/03/03 04:47:18;;;;;;;121.32;41.90;;;2.60;78.30;;;;;;5030393;28;20383;-73
2023/03/03 04:49:43;;;;;;;110.87;39.60;;;2.60;77.70;;;;;;5030393;28;20424;-73
2023/03/03 04:52:09;;;;;;;109.17;41.50;;;2.60;77.50;;;;;;5030340;28;20391;-72
2023/03/03 04:54:34;;;;;;;123.05;42.17;;;2.60;78.60;;;;;;5030405;28;20387;-72
2023/03/03 04:57:00;;;;;;;116.40;38.33;;;2.60;78.60;;;;;;5030345;28;20440;-72
2023/03/03 04:59:26;;;;;;;104.57;35.73;;;2.70;75.80;;;;;;5030929;28;20444;-72
2023/03/03 05:01:51;;;;;;;108.50;38.80;;;2.60;75.60;;;;;;5030303;28;20418;-71
2023/03/03 05:04:17;;;;;;;102.87;34.50;;;2.50;76.20;;;;;;5030583;28;20497;-73
2023/03/03 05:06:42;;;;;;;110.63;38.80;;;2.50;75.90;;;;;;5031146;28;20395;-73
2023/03/03 05:09:08;;;;;;;113.03;43.10;;;2.50;76.80;;;;;;5030542;28;20388;-71
2023/03/03 05:11:34;;;;;;;109.20;40.93;;;2.40;78.00;;;;;;5030405;28;20483;-71
2023/03/03 05:13:59;;;;;;;106.90;41.00;;;2.50;82.40;;;;;;5030577;28;20469;-74
2023/03/03 05:16:25;;;;;;;93.43;38.38;;;2.60;80.70;;;;;;5030455;28;20410;-72
2023/03/03 05:18:50;;;;;;;90.27;34.70;;;2.70;77.40;;;;;;5030271;28;20387;-73
2023/03/03 05:21:16;;;;;;;103.50;37.67;;;2.70;75.60;;;;;;5029214;28;20383;-73
2023/03/03 05:23:41;;;;;;;91.27;35.07;;;2.60;76.70;;;;;;5030243;28;20391;-73
2023/03/03 05:26:07;;;;;;;98.87;37.13;;;2.60;78.70;;;;;;5030127;28;20395;-74
2023/03/03 05:28:32;;;;;;;90.75;34.58;;;2.70;76.40;;;;;;5019847;28;20395;-72
2023/03/03 05:30:58;;;;;;;99.57;38.78;;;2.70;78.90;;;;;;5047604;28;20414;-72
2023/03/03 05:33:24;;;;;;;89.38;36.75;;;2.70;76.30;;;;;;5043183;28;20390;-73
2023/03/03 05:35:53;;;;;;;91.77;36.37;;;2.70;79.10;;;;;;5030954;28;20890;-71
2023/03/03 05:38:19;;;;;;;91.65;35.75;;;2.40;76.90;;;;;;5030320;28;20876;-72
2023/03/03 05:40:45;;;;;;;90.50;36.43;;;2.50;80.50;;;;;;5029813;28;20458;-72
2023/03/03 05:43:11;;;;;;;96.22;36.88;;;2.60;78.40;;;;;;5029841;28;20383;-73
2023/03/03 05:45:37;;;;;;;100.73;39.00;;;2.50;78.50;;;;;;5029927;28;20856;-74
2023/03/03 05:48:03;;;;;;;94.97;36.30;;;2.70;79.00;;;;;;5030009;28;20394;-72
2023/03/03 05:50:29;;;;;;;85.53;35.33;;;2.90;75.90;;;;;;5030175;28;20421;-72
2023/03/03 05:52:54;;;;;;;85.13;34.33;;;3.00;71.20;;;;;;5030314;28;20842;-73
2023/03/03 05:55:20;;;;;;;94.43;37.20;;;3.00;70.60;;;;;;5013712;28;20923;-74
2023/03/03 05:57:45;;;;;;;88.90;33.33;;;2.90;71.60;;;;;;5042044;28;20398;-73
2023/03/03 06:00:13;;;;;;;88.70;35.23;;;3.00;68.70;;;;;;5050759;28;20367;-73
2023/03/03 06:02:41;;;;;;;92.72;37.10;;;2.90;70.40;;;;;;5038899;28;20417;-72
2023/03/03 06:05:07;;;;;;;97.28;35.83;;;2.80;73.30;;;;;;4997798;28;20390;-72
2023/03/03 06:07:33;;;;;;;101.55;35.85;;;2.80;75.90;;;;;;5030766;28;20394;-73
2023/03/03 06:09:59;;;;;;;107.30;36.03;;;3.00;71.70;;;;;;5033541;28;20763;-74
2023/03/03 06:12:24;;;;;;;89.07;35.27;;;2.90;71.90;;;;;;5033102;28;20399;-73
2023/03/03 06:14:50;;;;;;;90.33;36.33;;;2.90;72.50;;;;;;5033171;28;20410;-73
2023/03/03 06:17:15;;;;;;;96.30;37.03;;;2.90;71.60;;;;;;5032821;28;20541;-73
2023/03/03 06:19:41;;;;;;;96.95;36.03;;;2.70;73.50;;;;;;5033162;28;20528;-72
2023/03/03 06:22:07;;;;;;;93.45;33.90;;;2.90;72.70;;;;;;5033611;28;20512;-73
2023/03/03 06:24:34;;;;;;;72.75;30.58;;;3.00;68.50;;;;;;5015628;28;20384;-72
2023/03/03 06:27:00;;;;;;;70.50;28.55;;;2.90;69.00;;;;;;5047530;22;20538;-73
2023/03/03 06:29:27;;;;;;;74.30;30.55;;;2.90;69.10;;;;;;5033690;28;20471;-72
2023/03/03 06:31:52;;;;;;;77.25;30.00;;;2.80;70.60;;;;;;5033858;28;20383;-72
2023/03/03 06:34:18;;;;;;;72.68;27.48;;;2.80;71.70;;;;;;5033341;28;20374;-73
2023/03/03 06:36:44;;;;;;;70.03;27.58;;;2.70;70.10;;;;;;5033338;28;20417;-72
2023/03/03 06:39:10;;;;;;;69.32;28.98;;;2.60;70.90;;;;;;5033598;28;20884;-71
2023/03/03 06:41:36;;;;;;;71.32;28.10;;;2.50;72.70;;;;;;5033491;28;20417;-72
2023/03/03 06:44:02;;;;;;;66.28;28.02;;;2.50;73.60;;;;;;5033477;28;20379;-72
2023/03/03 06:46:28;;;;;;;68.37;26.40;;;2.40;74.10;;;;;;5033219;28;20905;-72
2023/03/03 06:48:53;;;;;;;67.10;26.30;;;2.50;74.20;;;;;;5033287;28;20449;-72
2023/03/03 06:51:30;;;;;;;70.00;24.90;;;2.40;74.30;;;;;;5033016;28;20395;-73
2023/03/03 06:53:58;;;;;;;71.80;29.80;;;2.30;74.70;;;;;;5032446;28;20452;-72
2023/03/03 06:56:25;;;;;;;71.93;27.50;;;2.10;77.40;;;;;;5033421;28;20429;-72
2023/03/03 06:58:59;;;;;;;76.95;30.10;;;2.20;78.30;;;;;;5033446;28;20379;-73
2023/03/03 07:01:25;;;;;;;69.93;28.65;;;2.30;79.90;;;;;;5033191;28;20471;-72
2023/03/03 07:03:50;;;;;;;71.45;28.80;;;2.40;77.80;;;;;;5033354;28;20796;-73
2023/03/03 07:06:23;;;;;;;73.57;27.80;;;2.40;75.90;;;;;;5033357;28;20383;-72
2023/03/03 07:08:50;;;;;;;77.55;28.60;;;2.40;74.00;;;;;;5032482;28;20391;-75
2023/03/03 07:11:20;;;;;;;69.70;29.30;;;2.40;74.80;;;;;;5035199;28;20419;-74
2023/03/03 07:13:48;;;;;;;65.90;26.60;;;2.50;73.70;;;;;;5034798;28;20913;-73
2023/03/03 07:16:16;;;;;;;65.80;28.02;;;2.50;72.40;;;;;;5029374;28;20976;-72
2023/03/03 07:18:50;;;;;;;70.20;28.75;;;2.60;72.00;;;;;;5024530;28;20483;-74
2023/03/03 07:21:19;;;;;;;69.90;26.05;;;2.60;70.80;;;;;;5047911;28;20387;-75
2023/03/03 07:23:49;;;;;;;67.65;24.63;;;2.50;69.70;;;;;;5037874;28;20395;-76
2023/03/03 07:26:29;;;;;;;73.80;27.23;;;2.50;68.30;;;;;;5046549;28;20449;-74
2023/03/03 07:29:15;;;;;;;75.27;29.30;;;2.50;69.80;;;;;;5027671;28;20387;-78
2023/03/03 07:31:44;;;;;;;79.60;30.75;;;2.50;70.20;;;;;;5034467;28;20399;-77
2023/03/03 07:34:26;;;;;;;80.88;32.47;;;2.60;69.60;;;;;;5045825;28;20450;-77
2023/03/03 07:37:00;;;;;;;76.65;30.23;;;2.70;71.90;;;;;;5048895;28;20418;-77
2023/03/03 07:39:37;;;;;;;81.43;32.00;;;2.90;67.50;;;;;;5049812;28;20403;-77
2023/03/03 07:42:21;;;;;;;82.40;32.63;;;3.10;66.00;;;;;;5045425;28;20463;-78
2023/03/03 07:44:51;;;;;;;80.22;31.58;;;3.20;65.30;;;;;;5021141;28;20401;-79
2023/03/03 07:47:36;;;;;;;77.60;32.13;;;3.20;61.00;;;;;;5033641;28;20399;-78
2023/03/03 07:50:17;;;;;;;79.18;32.45;;;3.20;61.70;;;;;;5035492;28;20402;-78
2023/03/03 07:52:55;;;;;;;76.75;31.30;;;3.30;62.50;;;;;;5030713;28;20401;-76
2023/03/03 07:55:38;;;;;;;77.15;31.90;;;3.20;60.70;;;;;;5016476;28;20421;-78
2023/03/03 07:58:16;;;;;;;85.28;33.17;;;3.20;60.50;;;;;;5016282;28;20408;-77
2023/03/03 08:00:44;;;;;;;76.13;29.35;;;3.20;61.00;;;;;;5035147;28;20395;-79
2023/03/03 08:03:18;;;;;;;76.95;28.52;;;3.30;59.00;;;;;;5033272;28;20399;-77
2023/03/03 08:05:46;;;;;;;78.05;31.02;;;3.20;57.90;;;;;;5031173;28;20449;-73
2023/03/03 08:08:28;;;;;;;91.85;34.85;;;3.20;58.60;;;;;;5029335;28;20387;-75
2023/03/03 08:10:55;;;;;;;93.85;34.53;;;3.10;61.40;;;;;;5029258;28;20398;-75
2023/03/03 08:13:33;;;;;;;82.80;33.30;;;3.10;62.40;;;;;;5030690;28;20609;-75
2023/03/03 08:16:08;;;;;;;83.15;34.20;;;3.20;64.10;;;;;;5030653;28;20718;-77
2023/03/03 08:18:46;;;;;;;82.68;31.90;;;3.40;61.70;;;;;;5030494;28;20902;-76
2023/03/03 08:21:23;;;;;;;81.15;32.55;;;3.60;57.80;;;;;;5016425;28;20447;-77
2023/03/03 08:23:52;;;;;;;84.95;30.67;;;3.70;54.50;;;;;;5010887;28;20877;-77
2023/03/03 08:26:18;;;;;;;82.55;32.47;;;3.60;53.00;;;;;;5022604;28;20430;-76
2023/03/03 08:28:45;;;;;;;89.95;32.10;;;3.50;57.00;;;;;;5031429;28;20429;-76
2023/03/03 08:31:11;;;;;;;80.55;31.45;;;3.50;57.10;;;;;;5031730;28;20387;-74
2023/03/03 08:33:37;;;;;;;76.47;28.20;;;3.50;56.00;;;;;;5033020;28;20399;-74
2023/03/03 08:36:02;;;;;;;79.10;29.10;;;3.20;57.00;;;;;;5030633;28;20399;-72
2023/03/03 08:38:28;;;;;;;84.38;30.27;;;3.00;59.50;;;;;;5031989;28;20446;-74
2023/03/03 08:40:53;;;;;;;84.53;33.67;;;3.00;59.90;;;;;;5035194;28;20880;-75
2023/03/03 08:43:21;;;;;;;75.90;28.03;;;3.10;60.90;;;;;;5026372;28;20397;-72
2023/03/03 08:45:49;;;;;;;76.60;28.30;;;3.10;58.70;;;;;;5042644;28;20391;-74
2023/03/03 08:48:15;;;;;;;90.33;31.70;;;3.00;59.40;;;;;;5036277;28;20409;-73
2023/03/03 08:50:41;;;;;;;86.90;30.52;;;3.00;60.90;;;;;;5034133;28;20415;-74
2023/03/03 08:53:08;;;;;;;94.40;33.13;;;3.10;59.00;;;;;;5032020;28;20399;-73
2023/03/03 08:55:33;;;;;;;85.70;32.57;;;3.10;58.90;;;;;;5015625;28;20443;-75
2023/03/03 08:57:59;;;;;;;104.28;34.63;;;3.20;58.30;;;;;;5014077;28;20417;-73
2023/03/03 09:00:25;;;;;;;89.63;32.95;;;3.30;57.30;;;;;;5014099;28;20400;-73
2023/03/03 09:02:51;;;;;;;100.32;33.67;;;3.20;57.00;;;;;;5012977;28;20389;-73
2023/03/03 09:05:18;;;;;;;97.97;33.63;;;3.20;56.70;;;;;;5010386;28;20419;-74
2023/03/03 09:07:45;;;;;;;91.72;31.02;;;3.20;57.20;;;;;;5009699;28;20397;-73
2023/03/03 09:10:14;;;;;;;88.10;31.25;;;3.10;57.50;;;;;;5009815;28;20403;-73
2023/03/03 09:12:43;;;;;;;96.10;29.25;;;3.10;58.00;;;;;;5010733;28;20396;-73
2023/03/03 09:15:19;;;;;;;76.72;29.05;;;2.90;58.50;;;;;;5010042;28;20392;-73
2023/03/03 09:17:45;;;;;;;90.43;31.65;;;2.90;58.60;;;;;;5026877;28;20763;-72
2023/03/03 09:20:23;;;;;;;94.20;30.27;;;3.10;58.80;;;;;;5015190;28;20387;-73
2023/03/03 09:22:49;;;;;;;94.65;30.88;;;3.10;58.00;;;;;;5010398;28;20837;-72
2023/03/03 09:25:33;;;;;;;94.47;31.30;;;3.00;59.30;;;;;;5010890;28;20392;-74
2023/03/03 09:28:00;;;;;;;87.80;28.80;;;3.00;58.80;;;;;;5027168;28;20434;-74
2023/03/03 09:30:38;;;;;;;96.13;32.85;;;2.90;59.80;;;;;;5031302;28;20891;-74
2023/03/03 09:33:23;;;;;;;102.88;33.47;;;3.00;59.80;;;;;;5030498;28;20406;-72
2023/03/03 09:36:03;;;;;;;104.50;34.15;;;3.10;59.50;;;;;;5031410;28;20430;-74
2023/03/03 09:38:31;;;;;;;90.68;30.17;;;3.10;58.30;;;;;;5032583;28;20510;-73
2023/03/03 09:41:08;;;;;;;84.95;30.48;;;3.20;57.70;;;;;;5031610;28;20419;-74
2023/03/03 09:44:16;;;;;;;90.22;32.55;;;3.30;57.10;;;;;;5034206;28;20389;-74
2023/03/03 09:47:19;;;;;;;101.05;35.97;;;3.50;55.40;;;;;;5033553;28;20769;-74
2023/03/03 09:49:53;;;;;;;98.53;33.08;;;3.60;54.90;;;;;;5034713;28;20748;-73
2023/03/03 09:52:38;;;;;;;101.97;34.90;;;3.80;52.50;;;;;;5034495;28;20375;-74
2023/03/03 09:55:38;;;;;;;88.75;30.25;;;3.80;53.40;;;;;;5034889;28;20452;-74
2023/03/03 09:58:31;;;;;;;90.15;32.40;;;3.90;51.40;;;;;;5033262;28;20498;-73
2023/03/03 10:01:18;;;;;;;86.70;30.95;;;3.80;51.60;;;;;;5033893;28;20378;-73
2023/03/03 10:03:59;;;;;;;88.75;33.15;;;3.80;52.30;;;;;;5033988;28;20466;-74
2023/03/03 10:06:33;;;;;;;91.60;35.20;;;4.00;53.30;;;;;;5032993;28;20751;-73
2023/03/03 10:08:58;;;;;;;96.43;36.45;;;4.10;54.00;;;;;;5034412;28;20421;-73
2023/03/03 10:11:36;;;;;;;89.93;35.88;;;4.40;49.50;;;;;;5034610;28;20418;-73
2023/03/03 10:14:20;;;;;;;73.85;29.77;;;4.50;49.40;;;;;;5038290;28;20415;-73
2023/03/03 10:16:58;;;;;;;71.80;28.25;;;4.70;44.80;;;;;;5043121;28;21017;-73
2023/03/03 10:20:02;;;;;;;69.38;28.48;;;4.80;43.50;;;;;;5043569;28;20383;-71
2023/03/03 10:22:48;;;;;;;69.03;27.23;;;4.80;43.30;;;;;;4983940;28;20893;-72
2023/03/03 10:25:32;;;;;;;60.50;25.02;;;4.70;43.90;;;;;;4988365;28;20488;-73
2023/03/03 10:28:14;;;;;;;65.05;25.58;;;4.50;45.10;;;;;;5027139;28;20398;-73
2023/03/03 10:31:08;;;;;;;64.97;26.48;;;4.50;44.50;;;;;;5035007;28;20383;-73
2023/03/03 10:33:50;;;;;;;72.95;29.08;;;4.50;45.60;;;;;;5033760;28;20887;-73
2023/03/03 10:36:29;;;;;;;81.70;32.25;;;4.70;44.30;;;;;;5033745;28;20394;-73
2023/03/03 10:39:27;;;;;;;81.72;34.53;;;4.90;44.90;;;;;;5034108;28;20383;-73
2023/03/03 10:42:13;;;;;;;73.65;30.88;;;5.00;44.90;;;;;;5034886;28;20390;-76
2023/03/03 10:45:04;;;;;;;78.25;30.63;;;5.10;41.10;;;;;;5032242;28;20910;-72
2023/03/03 10:47:57;;;;;;;81.03;30.30;;;5.20;40.70;;;;;;5033350;28;20387;-74
2023/03/03 10:50:47;;;;;;;77.13;31.08;;;5.10;39.70;;;;;;5033688;28;20493;-75
2023/03/03 10:53:25;;;;;;;74.72;30.38;;;5.10;41.30;;;;;;5033123;28;20437;-74
2023/03/03 10:56:29;;;;;;;71.22;30.95;;;5.10;41.70;;;;;;5033573;28;20884;-72
2023/03/03 10:59:13;;;;;;;74.57;29.50;;;5.20;43.00;;;;;;5010307;28;20406;-73
2023/03/03 11:01:57;;;;;;;74.82;29.15;;;5.50;38.20;;;;;;5038427;28;20388;-74
2023/03/03 11:04:38;;;;;;;80.60;33.25;;;5.60;38.30;;;;;;5039325;28;20383;-75
2023/03/03 11:07:14;;;;;;;84.35;32.78;;;5.60;39.30;;;;;;5033700;28;20379;-75
2023/03/03 11:10:14;;;;;;;78.80;31.25;;;5.80;38.20;;;;;;5033613;28;20383;-74
2023/03/03 11:13:20;;;;;;;79.65;33.60;;;5.90;39.30;;;;;;5001867;28;20864;-73
2023/03/03 11:16:10;;;;;;;71.55;29.05;;;5.90;38.10;;;;;;5042486;28;20502;-73
2023/03/03 11:19:06;;;;;;;74.10;28.60;;;5.90;37.00;;;;;;5050180;28;20455;-71
2023/03/03 11:21:58;;;;;;;76.28;32.03;;;5.90;36.90;;;;;;5033414;28;20461;-73
2023/03/03 11:24:39;;;;;;;72.93;28.60;;;6.10;37.10;;;;;;5032879;28;20414;-73
2023/03/03 11:28:01;;;;;;;70.93;29.45;;;6.40;35.20;;;;;;5032618;28;20388;-74
2023/03/03 11:30:34;;;;;;;76.88;31.27;;;6.50;33.40;;;;;;4999132;28;20398;-74
2023/03/03 11:33:05;;;;;;;76.07;31.60;;;6.40;35.00;;;;;;5032500;28;20525;-73
2023/03/03 11:35:57;;;;;;;72.88;30.35;;;6.30;36.80;;;;;;5031393;28;20395;-72
2023/03/03 11:38:28;;;;;;;83.30;30.38;;;6.00;36.10;;;;;;5021545;28;20494;-74
2023/03/03 11:41:08;;;;;;;78.10;31.25;;;6.00;37.60;;;;;;5032594;28;20411;-74
2023/03/03 11:43:46;;;;;;;69.60;29.08;;;6.40;36.80;;;;;;5033476;28;20382;-74
2023/03/03 11:46:21;;;;;;;75.30;30.40;;;6.90;31.90;;;;;;5035027;28;20760;-75
2023/03/03 11:48:57;;;;;;;73.45;29.60;;;6.60;34.00;;;;;;5034977;28;20395;-73
2023/03/03 11:51:42;;;;;;;72.38;28.23;;;7.00;32.50;;;;;;5033777;28;20462;-73
2023/03/03 11:54:26;;;;;;;71.28;29.00;;;7.00;31.90;;;;;;5035551;28;20376;-74
2023/03/03 11:56:58;;;;;;;66.50;28.55;;;7.00;31.80;;;;;;5032979;28;20438;-75
2023/03/03 11:59:41;;;;;;;79.18;32.55;;;6.90;32.20;;;;;;5032282;28;20511;-73
2023/03/03 12:02:33;;;;;;;68.43;28.50;;;6.60;34.10;;;;;;5027257;28;20420;-75
2023/03/03 12:05:15;;;;;;;71.65;32.47;;;6.70;33.70;;;;;;5016651;28;20388;-75
2023/03/03 12:08:14;;;;;;;73.43;30.23;;;6.80;35.00;;;;;;5023171;28;20395;-74
2023/03/03 12:10:56;;;;;;;61.90;26.92;;;6.90;33.10;;;;;;4995998;28;20407;-71
2023/03/03 12:13:35;;;;;;;64.65;25.95;;;6.80;32.90;;;;;;5027504;28;20816;-72
2023/03/03 12:16:01;;;;;;;66.57;27.38;;;7.20;30.60;;;;;;5018615;28;20495;-72
2023/03/03 12:18:47;;;;;;;58.75;26.73;;;7.30;30.50;;;;;;5011471;28;20451;-72
2023/03/03 12:21:31;;;;;;;66.53;27.63;;;7.00;32.00;;;;;;5020727;28;20384;-71
2023/03/03 12:24:23;;;;;;;58.25;25.80;;;7.20;31.60;;;;;;5028527;28;20401;-73
2023/03/03 12:27:27;;;;;;;65.63;25.35;;;7.50;28.20;;;;;;5042501;22;20807;-71
2023/03/03 12:30:17;;;;;;;64.50;27.80;;;7.50;27.40;;;;;;5030053;28;20399;-71
2023/03/03 12:33:14;;;;;;;74.15;29.05;;;7.40;28.40;;;;;;5011532;28;20386;-72
2023/03/03 12:36:17;;;;;;;70.60;30.13;;;6.80;31.80;;;;;;5014081;28;20385;-73
2023/03/03 12:38:58;;;;;;;64.03;25.92;;;6.80;33.70;;;;;;4972595;28;20496;-72
2023/03/03 12:41:38;;;;;;;60.60;25.08;;;7.00;32.40;;;;;;5012444;28;20387;-72
2023/03/03 12:44:22;;;;;;;60.20;25.35;;;7.30;29.90;;;;;;5011188;28;20427;-71
2023/03/03 12:46:54;;;;;;;60.95;24.60;;;7.40;29.50;;;;;;5011111;28;20389;-72
2023/03/03 12:49:20;;;;;;;55.20;23.15;;;7.50;28.40;;;;;;5015052;28;20487;-71
2023/03/03 12:52:19;;;;;;;55.78;22.80;;;7.30;28.70;;;;;;5011409;28;20385;-73
2023/03/03 12:55:04;;;;;;;59.35;24.23;;;6.90;31.30;;;;;;5011267;28;20387;-72
2023/03/03 12:57:44;;;;;;;61.67;25.63;;;6.80;32.50;;;;;;5012305;28;20412;-73
2023/03/03 13:00:10;;;;;;;60.78;24.50;;;7.00;30.60;;;;;;5013631;28;20385;-71